Latest Weather Observations for Kununurra Airport

IDW60801

Issued at 9:03 pm WST Monday 18 June 2018 (issued every 10 minutes, with the page automatically refreshed every 10 minutes)

About weather observations | Map of weather stations | Latest weather observations for WA | Other Formats
Station Details ID: 002056 Name: KUNUNURRA AERO Lat: -15.78 Lon: 128.71 Height: 44.0 m
Data from the previous 72 hours. | See also: Recent months at Kununurra Airport
Date/Time
WST
Temp
°C
App
Temp
°C
Dew
Point
°C
Rel
Hum
%
Delta-T
°C
Wind Press
QNH
hPa
Press
MSL
hPa
Rain since
9am
mm
Dir  Spd
km/h
Gust
km/h
Spd
kts
Gust
kts
18/09:00pm 14.4 13.8 7.5 63 3.4 CALM 0 0 0 0 1017.4 1017.3 0.0
18/08:44pm 14.1 12.5 8.1 67 3.0 SE 6 7 3 4 1017.5 1017.4 0.0
18/08:30pm 14.8 13.2 8.1 64 3.4 E 6 7 3 4 1017.4 1017.3 0.0
18/08:00pm 15.3 13.8 8.3 63 3.5 SE 6 7 3 4 1017.5 1017.4 0.0
18/07:43pm 14.6 13.0 8.1 65 3.3 SE 6 6 3 3 1017.4 1017.3 0.0
18/07:30pm 15.6 14.9 8.4 62 3.7 SSE 2 7 1 4 1017.2 1017.1 0.0
18/07:24pm 15.6 15.3 8.6 63 3.6 CALM 0 0 0 0 1017.2 1017.1 0.0
18/07:00pm 16.1 14.6 8.3 60 4.0 SSE 6 7 3 4 1017.0 1016.9 0.0
18/06:30pm 17.3 16.9 8.4 56 4.6 CALM 0 0 0 0 1016.8 1016.7 0.0
18/06:00pm 18.6 16.9 7.4 48 5.7 SE 6 7 3 4 1016.4 1016.3 0.0
18/05:30pm 20.3 19.9 8.3 46 6.3 CALM 0 0 0 0 1016.1 1016.0 0.0
18/05:11pm 23.1 20.9 6.0 33 8.7 SE 7 9 4 5 1015.9 1015.8 0.0
18/05:00pm 24.3 21.4 4.6 28 9.8 SE 9 11 5 6 1015.8 1015.7 0.0
18/04:30pm 26.6 23.8 3.2 22 11.6 SSE 7 11 4 6 1015.6 1015.5 0.0
18/04:26pm 26.7 23.8 2.6 21 11.8 SSE 7 11 4 6 1015.6 1015.5 0.0
18/04:11pm 27.1 24.4 3.6 22 11.7 SE 7 9 4 5 1015.4 1015.3 0.0
18/04:00pm 27.2 23.8 1.6 19 12.3 ESE 9 15 5 8 1015.3 1015.2 0.0
18/03:30pm 27.7 23.8 1.2 18 12.7 SE 11 17 6 9 1015.2 1015.1 0.0
18/03:00pm 27.8 23.4 0.5 17 13.0 SE 13 19 7 10 1015.2 1015.1 0.0
18/02:30pm 27.3 22.6 0.9 18 12.6 SE 15 20 8 11 1015.4 1015.3 0.0
18/02:00pm 27.7 22.9 0.5 17 12.9 SE 15 24 8 13 1015.4 1015.3 0.0
18/01:30pm 27.3 22.1 0.1 17 12.8 ESE 17 24 9 13 1015.8 1015.7 0.0
18/01:00pm 27.7 22.3 1.2 18 12.7 ESE 19 28 10 15 1016.1 1016.0 0.0
18/12:30pm 26.2 21.2 1.5 20 11.8 ESE 17 26 9 14 1016.6 1016.5 0.0
18/12:00pm 26.4 21.0 2.3 21 11.7 SE 20 33 11 18 1017.3 1017.2 0.0
18/11:30am 25.9 21.0 1.9 21 11.5 SE 17 26 9 14 1018.1 1018.0 0.0
18/11:00am 24.6 19.2 1.5 22 10.9 SE 19 26 10 14 1018.7 1018.5 0.0
18/10:30am 24.7 18.5 2.2 23 10.8 ESE 24 32 13 17 1019.2 1019.0 0.0
18/10:00am 24.0 18.6 2.2 24 10.4 SE 20 30 11 16 1019.5 1019.3 0.0
18/09:30am 22.9 17.4 1.9 25 9.9 SE 20 30 11 16 1019.8 1019.6 0.0
18/09:00am 22.5 17.1 2.6 27 9.4 SE 20 28 11 15 1020.0 1019.8 0.0
18/08:42am 22.2 16.8 2.3 27 9.4 SE 20 30 11 16 1020.1 1019.9 0.0
18/08:30am 22.1 16.9 2.2 27 9.4 SE 19 28 10 15 1020.1 1019.9 0.0
18/08:27am 22.1 16.7 2.2 27 9.4 SE 20 28 11 15 1020.1 1019.9 0.0
18/08:00am 21.4 15.7 3.1 30 8.7 ESE 22 39 12 21 1020.1 1019.9 0.0
18/07:30am 20.9 15.5 2.2 29 8.7 ESE 20 32 11 17 1020.0 1019.8 0.0
18/07:00am 19.3 16.2 3.5 35 7.4 SSE 9 17 5 9 1019.8 1019.6 0.0
18/06:30am 17.9 14.5 3.8 39 6.6 S 11 15 6 8 1019.5 1019.3 0.0
18/06:00am 18.0 14.0 2.7 36 7.0 SSE 13 20 7 11 1019.2 1019.0 0.0
18/05:30am 17.5 13.6 3.4 39 6.5 SSE 13 15 7 8 1018.9 1018.7 0.0
18/05:00am 17.6 14.2 3.9 40 6.4 SSE 11 15 6 8 1018.7 1018.5 0.0
18/04:30am 13.5 11.0 4.9 56 4.0 SSE 7 11 4 6 1018.6 1018.4 0.0
18/04:00am 15.2 12.7 4.6 49 4.9 SSE 7 11 4 6 1018.3 1018.2 0.0
18/03:30am 16.3 13.7 4.4 45 5.6 SSE 7 11 4 6 1018.1 1018.0 0.0
18/03:00am 18.0 14.5 3.5 38 6.8 SSE 11 15 6 8 1018.0 1017.9 0.0
18/02:30am 18.3 15.2 3.8 38 6.8 SSE 9 11 5 6 1018.0 1017.9 0.0
18/02:00am 18.7 15.5 3.3 36 7.2 SE 9 13 5 7 1017.9 1017.8 0.0
18/01:30am 19.3 15.7 3.1 34 7.6 SSE 11 17 6 9 1017.9 1017.8 0.0
18/01:00am 19.4 15.8 3.2 34 7.6 SSE 11 13 6 7 1017.8 1017.7 0.0
18/12:30am 19.7 16.0 2.6 32 7.9 SSE 11 15 6 8 1018.2 1018.1 0.0
18/12:00am 20.2 16.5 2.5 31 8.2 SSE 11 17 6 9 1018.4 1018.3 0.0
 
Date/Time
WST
Temp
°C
App
Temp
°C
Dew
Point
°C
Rel
Hum
%
Delta-T
°C
Wind Press
QNH
hPa
Press
MSL
hPa
Rain since
9am
mm
Dir  Spd
km/h
Gust
km/h
Spd
kts
Gust
kts
17/11:30pm 20.7 17.0 2.5 30 8.5 SSE 11 13 6 7 1018.3 1018.2 0.0
17/11:00pm 21.6 17.8 1.8 27 9.2 SSE 11 15 6 8 1018.2 1018.1 0.0
17/10:30pm 23.2 18.6 1.5 24 10.1 ESE 15 22 8 12 1018.2 1018.1 0.0
17/10:00pm 23.8 18.0 0.2 21 10.8 ESE 20 28 11 15 1018.4 1018.3 0.0
17/09:30pm 24.2 18.5 0.5 21 11.0 SE 20 28 11 15 1018.4 1018.3 0.0
17/09:03pm 23.8 18.1 0.8 22 10.7 ESE 20 30 11 16 1018.4 1018.3 0.0
17/09:00pm 23.8 18.3 0.8 22 10.6 ESE 19 30 10 16 1018.4 1018.3 0.0
17/08:52pm 21.9 18.2 2.6 28 9.1 ESE 11 20 6 11 1018.3 1018.2 0.0
17/08:30pm 16.5 14.8 7.4 55 4.6 S 6 7 3 4 1018.1 1018.0 0.0
17/08:00pm 17.6 16.2 7.4 51 5.1 SE 4 7 2 4 1018.1 1018.0 0.0
17/07:30pm 21.9 19.2 5.8 35 8.1 SSE 9 11 5 6 1017.8 1017.7 0.0
17/07:26pm 22.1 19.4 5.5 34 8.3 SSE 9 13 5 7 1017.8 1017.7 0.0
17/07:00pm 21.3 18.9 6.8 39 7.4 SSE 9 9 5 5 1017.7 1017.6 0.0
17/06:30pm 23.3 20.4 4.8 30 9.2 SSE 9 11 5 6 1017.2 1017.1 0.0
17/06:00pm 23.8 20.7 5.7 31 9.2 SSE 11 13 6 7 1016.9 1016.8 0.0
17/05:30pm 24.8 21.7 5.6 29 9.8 SSE 11 15 6 8 1016.6 1016.5 0.0
17/05:00pm 25.7 22.3 5.8 28 10.2 SSE 13 17 7 9 1016.4 1016.3 0.0
17/04:30pm 27.1 23.6 5.4 25 11.2 SSE 13 19 7 10 1016.1 1016.0 0.0
17/04:00pm 28.0 24.4 5.0 23 11.8 SSE 13 22 7 12 1015.7 1015.6 0.0
17/03:30pm 28.4 24.0 4.6 22 12.2 SSE 17 24 9 13 1015.6 1015.5 0.0
17/03:00pm 28.9 25.1 5.7 23 12.1 SSE 15 20 8 11 1015.7 1015.6 0.0
17/02:30pm 29.2 25.1 4.6 21 12.7 SE 15 22 8 12 1015.9 1015.8 0.0
17/02:00pm 28.7 24.2 4.2 21 12.5 SE 17 22 9 12 1016.2 1016.1 0.0
17/01:30pm 28.6 23.6 3.5 20 12.6 SE 19 28 10 15 1016.4 1016.3 0.0
17/01:00pm 28.7 23.7 3.5 20 12.7 SE 19 30 10 16 1016.9 1016.8 0.0
17/12:30pm 28.4 23.2 2.6 19 12.8 ESE 19 26 10 14 1017.3 1017.2 0.0
17/12:00pm 27.3 21.8 1.7 19 12.4 SE 20 32 11 17 1018.1 1018.0 0.0
17/11:30am 27.1 21.8 2.9 21 11.9 SE 20 28 11 15 1018.6 1018.4 0.0
17/11:00am 26.5 20.5 3.1 22 11.5 SE 24 33 13 18 1019.2 1019.0 0.0
17/10:30am 26.2 20.1 2.8 22 11.5 SE 24 33 13 18 1019.7 1019.5 0.0
17/10:00am 26.0 20.1 2.0 21 11.5 SE 22 37 12 20 1020.1 1019.9 0.0
17/09:30am 25.2 19.3 2.0 22 11.1 SE 22 32 12 17 1020.4 1020.2 0.0
17/09:00am 24.9 19.5 2.4 23 10.8 SE 20 28 11 15 1020.8 1020.6 0.0
17/08:30am 24.3 17.9 3.0 25 10.3 ESE 26 35 14 19 1020.8 1020.6 0.0
17/08:18am 24.3 17.8 2.5 24 10.5 ESE 26 37 14 20 1020.9 1020.7 0.0
17/08:00am 23.7 17.8 2.0 24 10.2 SE 22 39 12 21 1020.9 1020.7 0.0
17/07:59am 23.8 17.9 2.0 24 10.3 SE 22 32 12 17 1021.0 1020.8 0.0
17/07:30am 23.0 19.1 5.4 32 8.8 SE 15 24 8 13 1020.8 1020.6 0.0
17/07:00am 21.6 18.6 5.9 36 7.9 SSE 11 15 6 8 1020.5 1020.3 0.0
17/06:30am 20.2 17.7 6.5 41 6.9 S 9 11 5 6 1020.0 1019.8 0.0
17/06:00am 19.3 17.1 6.4 43 6.4 SSW 7 9 4 5 1019.6 1019.4 0.0
17/05:30am 19.9 17.7 6.3 41 6.8 S 7 9 4 5 1019.4 1019.2 0.0
17/05:00am 20.2 17.6 6.2 40 7.0 S 9 19 5 10 1019.1 1018.9 0.0
17/04:30am 20.3 17.7 6.3 40 7.0 S 9 17 5 9 1018.8 1018.6 0.0
17/04:00am 22.7 18.9 5.6 33 8.6 SE 15 22 8 12 1018.6 1018.4 0.0
17/03:30am 22.5 19.5 5.9 34 8.4 SE 11 20 6 11 1018.2 1018.1 0.0
17/03:00am 22.7 19.7 6.0 34 8.4 SE 11 19 6 10 1018.4 1018.3 0.0
17/02:30am 23.8 19.0 5.7 31 9.2 SE 20 26 11 14 1018.3 1018.2 0.0
17/02:00am 24.1 19.7 6.4 32 9.1 ESE 19 30 10 16 1018.6 1018.4 0.0
17/01:30am 23.9 19.8 6.2 32 9.1 ESE 17 20 9 11 1018.6 1018.4 0.0
17/01:00am 24.6 20.1 6.8 32 9.2 ESE 20 28 11 15 1018.9 1018.7 0.0
17/12:30am 24.3 19.9 6.6 32 9.2 ESE 19 26 10 14 1019.0 1018.8 0.0
17/12:00am 24.6 20.6 6.8 32 9.2 ESE 17 28 9 15 1019.0 1018.8 0.0
 
Date/Time
WST
Temp
°C
App
Temp
°C
Dew
Point
°C
Rel
Hum
%
Delta-T
°C
Wind Press
QNH
hPa
Press
MSL
hPa
Rain since
9am
mm
Dir  Spd
km/h
Gust
km/h
Spd
kts
Gust
kts
16/11:30pm 24.0 20.1 7.2 34 8.8 ESE 17 20 9 11 1019.0 1018.8 0.0
16/11:00pm 24.4 20.6 7.5 34 8.9 ESE 17 24 9 13 1019.0 1018.8 0.0
16/10:30pm 25.5 21.8 8.1 33 9.3 ESE 17 24 9 13 1018.9 1018.7 0.0
16/10:00pm 25.2 21.7 8.7 35 8.9 ESE 17 22 9 12 1018.9 1018.7 0.0
16/09:30pm 26.0 22.2 8.9 34 9.3 ESE 19 26 10 14 1018.7 1018.5 0.0
16/09:00pm 25.2 21.9 9.5 37 8.6 ESE 17 22 9 12 1018.7 1018.5 0.0
16/08:30pm 22.8 21.6 11.5 49 6.3 ESE 9 13 5 7 1018.6 1018.4 0.0
16/08:00pm 22.3 21.7 12.3 53 5.7 SE 7 9 4 5 1018.4 1018.3 0.0
16/07:30pm 25.1 23.3 10.9 41 8.0 SE 11 13 6 7 1018.0 1017.9 0.0
16/07:00pm 25.6 24.2 11.0 40 8.2 SE 9 11 5 6 1017.6 1017.5 0.0
16/06:30pm 26.0 24.4 11.4 40 8.3 SE 11 13 6 7 1017.2 1017.1 0.0
16/06:00pm 26.8 25.5 11.3 38 8.8 SE 9 13 5 7 1016.8 1016.7 0.0
16/05:30pm 27.5 25.8 11.1 36 9.3 ESE 11 15 6 8 1016.4 1016.3 0.0
16/05:00pm 28.7 26.6 11.3 34 10.0 SE 13 20 7 11 1016.2 1016.1 0.0
16/04:30pm 29.7 27.6 11.2 31 10.7 SE 13 20 7 11 1016.0 1015.9 0.0
16/04:00pm 30.4 28.0 11.4 31 11.0 SE 15 20 8 11 1015.9 1015.8 0.0
16/03:30pm 31.0 28.5 12.4 32 11.0 SE 17 24 9 13 1015.6 1015.5 0.0
16/03:00pm 31.0 27.8 11.9 31 11.2 ESE 20 26 11 14 1015.5 1015.4 0.0
16/02:30pm 31.5 28.4 12.3 31 11.3 ESE 20 28 11 15 1015.7 1015.6 0.0
16/02:00pm 31.1 27.9 12.0 31 11.2 SE 20 30 11 16 1015.9 1015.8 0.0
16/01:30pm 31.3 27.8 12.2 31 11.3 SE 22 32 12 17 1016.1 1016.0 0.0
16/01:00pm 30.5 27.3 11.9 31 10.9 SE 20 28 11 15 1016.4 1016.3 0.0
16/12:30pm 31.3 28.3 12.6 31 11.1 ESE 20 26 11 14 1016.9 1016.8 0.0
16/12:00pm 30.2 27.2 12.6 34 10.4 ESE 20 30 11 16 1017.6 1017.5 0.0
16/11:30am 29.5 26.1 12.4 35 10.0 SE 22 28 12 15 1018.2 1018.1 0.0
16/11:00am 28.8 25.5 12.7 37 9.4 SE 22 32 12 17 1018.8 1018.6 0.0
16/10:30am 29.4 26.5 12.8 36 9.8 SE 20 28 11 15 1019.2 1019.0 0.0
16/10:00am 28.5 25.2 12.8 38 9.2 ESE 22 32 12 17 1019.8 1019.6 0.0
16/09:30am 27.4 24.5 13.0 41 8.5 ESE 20 32 11 17 1020.0 1019.8 0.0
16/09:00am 26.8 23.6 13.2 43 8.0 ESE 22 35 12 19 1020.0 1019.8 0.0
16/08:30am 26.9 23.9 13.6 44 7.9 ESE 22 32 12 17 1020.1 1019.9 0.0
16/08:00am 25.7 24.2 14.2 49 6.8 SE 15 20 8 11 1020.1 1019.9 0.0
16/07:30am 25.3 24.2 14.4 50 6.5 SE 13 20 7 11 1019.7 1019.5 0.0
16/07:00am 24.0 24.3 15.0 57 5.4 S 7 11 4 6 1019.4 1019.2 0.0
16/06:30am 23.1 23.3 14.7 59 5.0 SSE 7 13 4 7 1019.1 1018.9 0.0
16/06:00am 22.4 21.2 14.0 59 4.9 ESE 13 15 7 8 1018.9 1018.7 0.0
16/05:30am 23.6 21.6 14.0 55 5.6 ESE 17 26 9 14 1018.3 1018.2 0.0
16/05:00am 23.6 22.1 14.3 56 5.5 ESE 15 24 8 13 1018.0 1017.9 0.0
16/04:30am 24.4 23.1 14.8 55 5.7 ESE 15 24 8 13 1017.7 1017.6 0.0
16/04:00am 23.7 22.3 14.4 56 5.5 ESE 15 22 8 12 1017.5 1017.4 0.0
16/03:30am 23.9 22.5 14.6 56 5.5 ESE 15 24 8 13 1017.4 1017.3 0.0
16/03:00am 25.0 22.9 14.8 53 6.1 ESE 19 24 10 13 1017.4 1017.3 0.0
16/02:30am 25.2 23.6 14.9 52 6.2 ESE 17 24 9 13 1017.4 1017.3 0.0
16/02:00am 25.3 24.1 15.0 53 6.2 ESE 15 20 8 11 1017.4 1017.3 0.0
16/01:30am 24.5 23.2 14.9 55 5.7 ESE 15 19 8 10 1017.4 1017.3 0.0
16/01:00am 23.9 23.0 14.9 57 5.4 E 13 17 7 9 1017.4 1017.3 0.0
16/12:30am 25.7 25.1 15.7 54 6.1 ESE 13 17 7 9 1017.4 1017.3 0.0
16/12:00am 24.2 24.1 14.9 56 5.6 ESE 9 11 5 6 1017.4 1017.3 0.0
 
Date/Time
WST
Temp
°C
App
Temp
°C
Dew
Point
°C
Rel
Hum
%
Delta-T
°C
Wind Press
QNH
hPa
Press
MSL
hPa
Rain since
9am
mm
Dir  Spd
km/h
Gust
km/h
Spd
kts
Gust
kts
15/11:30pm 24.7 23.8 14.8 54 5.9 ESE 13 17 7 9 1017.4 1017.3 0.0
15/11:00pm 26.2 24.2 15.0 50 6.7 ESE 19 24 10 13 1017.3 1017.2 0.0
15/10:30pm 26.2 24.6 15.0 50 6.8 ESE 17 20 9 11 1017.5 1017.4 0.0
15/10:00pm 26.6 24.6 15.0 49 7.0 ESE 19 26 10 14 1017.5 1017.4 0.0
15/09:30pm 26.8 25.3 15.2 49 7.0 ESE 17 24 9 13 1017.5 1017.4 0.0

Other Formats:

Comma delimited format used in spreadsheet applications
http://www.bom.gov.au/fwo/IDW60801/IDW60801.94216.axf

JavaScript Object Notation format (JSON) in row-major order
http://www.bom.gov.au/fwo/IDW60801/IDW60801.94216.json